Urb San Carlos, Puerto Rico
Current Conditions -  °F | °C
As of 4:50 PM on Wednesday 26 Nov 2014 (Local Time) from TJBQ Reporting Station
Scattered Clouds Scattered Clouds  
Wind Chill: 81°   Ceiling: Unl
Heat Index: 85°   Visibility: 10mi
Dew Point: 72°   Wind: 15mph
Humidity: 74%   Direction: 90°E
Pressure: 29.98"   Gusts: 23mph
Location:  18.4409°N, 67.1508°W
Report Text: TJBQ 262050Z 09013G20KT 10SM SCT021 27/22 A2998 RMK RWY08 ATIS P
Loading
Personal Weather Stations






























Interactive Weather Map New forecast layout! Learn more

10-Day Weather Forecast

Advertisements
Track Severe Weather on mobile